sensor_id;sensor_type;location;lat;lon;timestamp;P1;durP1;ratioP1;P2;durP2;ratioP2
33714;SDS011;20043;50.998;4.754;2023-02-01T00:01:09;27.73;;;9.07;;
33714;SDS011;20043;50.998;4.754;2023-02-01T00:03:35;33.13;;;9.68;;
33714;SDS011;20043;50.998;4.754;2023-02-01T00:06:03;34.47;;;8.50;;
33714;SDS011;20043;50.998;4.754;2023-02-01T00:08:28;34.33;;;8.23;;
33714;SDS011;20043;50.998;4.754;2023-02-01T00:10:58;30.92;;;8.98;;
33714;SDS011;20043;50.998;4.754;2023-02-01T00:13:31;33.55;;;8.70;;
33714;SDS011;20043;50.998;4.754;2023-02-01T00:16:08;31.65;;;8.05;;
33714;SDS011;20043;50.998;4.754;2023-02-01T00:18:37;26.85;;;7.93;;
33714;SDS011;20043;50.998;4.754;2023-02-01T00:21:03;38.92;;;8.98;;
33714;SDS011;20043;50.998;4.754;2023-02-01T00:23:31;33.10;;;8.63;;
33714;SDS011;20043;50.998;4.754;2023-02-01T00:26:02;35.78;;;8.98;;
33714;SDS011;20043;50.998;4.754;2023-02-01T00:28:29;25.95;;;7.80;;
33714;SDS011;20043;50.998;4.754;2023-02-01T00:30:57;32.95;;;7.57;;
33714;SDS011;20043;50.998;4.754;2023-02-01T00:33:25;32.35;;;7.70;;
33714;SDS011;20043;50.998;4.754;2023-02-01T00:35:50;35.28;;;7.90;;
33714;SDS011;20043;50.998;4.754;2023-02-01T00:38:22;31.92;;;6.97;;
33714;SDS011;20043;50.998;4.754;2023-02-01T00:40:48;33.10;;;7.55;;
33714;SDS011;20043;50.998;4.754;2023-02-01T00:43:14;30.52;;;6.20;;
33714;SDS011;20043;50.998;4.754;2023-02-01T00:45:39;28.88;;;6.60;;
33714;SDS011;20043;50.998;4.754;2023-02-01T00:48:05;33.45;;;7.25;;
33714;SDS011;20043;50.998;4.754;2023-02-01T00:50:30;31.45;;;6.43;;
33714;SDS011;20043;50.998;4.754;2023-02-01T00:52:56;35.97;;;6.18;;
33714;SDS011;20043;50.998;4.754;2023-02-01T00:55:22;30.95;;;7.43;;
33714;SDS011;20043;50.998;4.754;2023-02-01T00:57:47;26.73;;;6.10;;
33714;SDS011;20043;50.998;4.754;2023-02-01T01:00:13;35.88;;;6.43;;
33714;SDS011;20043;50.998;4.754;2023-02-01T01:02:39;33.63;;;7.00;;
33714;SDS011;20043;50.998;4.754;2023-02-01T01:05:04;40.65;;;6.88;;
33714;SDS011;20043;50.998;4.754;2023-02-01T01:07:30;35.95;;;6.45;;
33714;SDS011;20043;50.998;4.754;2023-02-01T01:09:56;32.78;;;6.35;;
33714;SDS011;20043;50.998;4.754;2023-02-01T01:12:21;26.20;;;6.05;;
33714;SDS011;20043;50.998;4.754;2023-02-01T01:14:47;33.90;;;6.70;;
33714;SDS011;20043;50.998;4.754;2023-02-01T01:17:12;29.67;;;5.63;;
33714;SDS011;20043;50.998;4.754;2023-02-01T01:19:38;33.20;;;5.75;;
33714;SDS011;20043;50.998;4.754;2023-02-01T01:22:04;28.67;;;5.45;;
33714;SDS011;20043;50.998;4.754;2023-02-01T01:24:29;36.72;;;6.18;;
33714;SDS011;20043;50.998;4.754;2023-02-01T01:26:55;24.25;;;5.32;;
33714;SDS011;20043;50.998;4.754;2023-02-01T01:29:20;27.38;;;5.38;;
33714;SDS011;20043;50.998;4.754;2023-02-01T01:31:46;36.53;;;6.22;;
33714;SDS011;20043;50.998;4.754;2023-02-01T01:34:11;29.73;;;4.70;;
33714;SDS011;20043;50.998;4.754;2023-02-01T01:36:38;30.90;;;5.68;;
33714;SDS011;20043;50.998;4.754;2023-02-01T01:39:03;24.45;;;5.88;;
33714;SDS011;20043;50.998;4.754;2023-02-01T01:41:30;31.40;;;5.93;;
33714;SDS011;20043;50.998;4.754;2023-02-01T01:43:58;25.65;;;5.45;;
33714;SDS011;20043;50.998;4.754;2023-02-01T01:46:29;29.67;;;5.13;;
33714;SDS011;20043;50.998;4.754;2023-02-01T01:51:41;32.08;;;5.75;;
33714;SDS011;20043;50.998;4.754;2023-02-01T01:54:25;31.42;;;5.13;;
33714;SDS011;20043;50.998;4.754;2023-02-01T01:56:56;27.15;;;5.28;;
33714;SDS011;20043;50.998;4.754;2023-02-01T01:59:30;36.25;;;5.22;;
33714;SDS011;20043;50.998;4.754;2023-02-01T02:01:57;30.73;;;5.25;;
33714;SDS011;20043;50.998;4.754;2023-02-01T02:04:23;28.45;;;5.47;;
33714;SDS011;20043;50.998;4.754;2023-02-01T02:07:09;26.73;;;5.47;;
33714;SDS011;20043;50.998;4.754;2023-02-01T02:09:41;33.83;;;5.20;;
33714;SDS011;20043;50.998;4.754;2023-02-01T02:12:08;27.30;;;5.78;;
33714;SDS011;20043;50.998;4.754;2023-02-01T02:14:37;33.55;;;5.85;;
33714;SDS011;20043;50.998;4.754;2023-02-01T02:28:04;20.08;;;4.30;;
33714;SDS011;20043;50.998;4.754;2023-02-01T02:38:33;25.08;;;4.38;;
33714;SDS011;20043;50.998;4.754;2023-02-01T02:43:37;26.10;;;5.10;;
33714;SDS011;20043;50.998;4.754;2023-02-01T02:46:36;36.28;;;6.60;;
33714;SDS011;20043;50.998;4.754;2023-02-01T02:49:38;25.27;;;5.20;;
33714;SDS011;20043;50.998;4.754;2023-02-01T02:52:09;32.33;;;5.50;;
33714;SDS011;20043;50.998;4.754;2023-02-01T02:54:58;40.60;;;5.45;;
33714;SDS011;20043;50.998;4.754;2023-02-01T02:57:30;38.28;;;5.00;;
33714;SDS011;20043;50.998;4.754;2023-02-01T03:00:18;32.58;;;5.32;;
33714;SDS011;20043;50.998;4.754;2023-02-01T03:03:06;32.65;;;5.78;;
33714;SDS011;20043;50.998;4.754;2023-02-01T03:05:50;24.55;;;4.88;;
33714;SDS011;20043;50.998;4.754;2023-02-01T03:08:17;28.00;;;4.80;;
33714;SDS011;20043;50.998;4.754;2023-02-01T03:10:58;37.20;;;4.90;;
33714;SDS011;20043;50.998;4.754;2023-02-01T03:13:35;24.63;;;4.30;;
33714;SDS011;20043;50.998;4.754;2023-02-01T03:16:12;26.45;;;4.55;;
33714;SDS011;20043;50.998;4.754;2023-02-01T03:19:08;26.27;;;4.68;;
33714;SDS011;20043;50.998;4.754;2023-02-01T03:21:40;37.67;;;5.28;;
33714;SDS011;20043;50.998;4.754;2023-02-01T03:24:14;27.95;;;5.60;;
33714;SDS011;20043;50.998;4.754;2023-02-01T03:26:48;25.67;;;5.65;;
33714;SDS011;20043;50.998;4.754;2023-02-01T03:29:19;26.60;;;4.47;;
33714;SDS011;20043;50.998;4.754;2023-02-01T03:31:49;30.10;;;5.55;;
33714;SDS011;20043;50.998;4.754;2023-02-01T03:34:15;23.27;;;4.78;;
33714;SDS011;20043;50.998;4.754;2023-02-01T03:36:49;35.78;;;6.43;;
33714;SDS011;20043;50.998;4.754;2023-02-01T03:41:56;32.17;;;5.13;;
33714;SDS011;20043;50.998;4.754;2023-02-01T03:49:27;25.95;;;5.07;;
33714;SDS011;20043;50.998;4.754;2023-02-01T03:51:58;31.35;;;5.55;;
33714;SDS011;20043;50.998;4.754;2023-02-01T03:54:25;26.88;;;4.25;;
33714;SDS011;20043;50.998;4.754;2023-02-01T03:56:54;30.27;;;5.45;;
33714;SDS011;20043;50.998;4.754;2023-02-01T03:59:21;31.65;;;5.28;;
33714;SDS011;20043;50.998;4.754;2023-02-01T04:01:48;29.27;;;5.55;;
33714;SDS011;20043;50.998;4.754;2023-02-01T04:04:14;30.20;;;5.32;;
33714;SDS011;20043;50.998;4.754;2023-02-01T04:06:45;35.53;;;5.75;;
33714;SDS011;20043;50.998;4.754;2023-02-01T04:09:11;29.55;;;5.53;;
33714;SDS011;20043;50.998;4.754;2023-02-01T04:11:37;35.72;;;6.28;;
33714;SDS011;20043;50.998;4.754;2023-02-01T04:14:02;28.48;;;5.25;;
33714;SDS011;20043;50.998;4.754;2023-02-01T04:16:29;29.35;;;6.43;;
33714;SDS011;20043;50.998;4.754;2023-02-01T04:18:58;27.92;;;5.32;;
33714;SDS011;20043;50.998;4.754;2023-02-01T04:21:25;35.03;;;6.50;;
33714;SDS011;20043;50.998;4.754;2023-02-01T04:23:54;34.40;;;5.82;;
33714;SDS011;20043;50.998;4.754;2023-02-01T04:26:20;33.63;;;5.45;;
33714;SDS011;20043;50.998;4.754;2023-02-01T04:28:46;36.67;;;5.25;;
33714;SDS011;20043;50.998;4.754;2023-02-01T04:31:13;25.27;;;5.53;;
33714;SDS011;20043;50.998;4.754;2023-02-01T04:33:43;31.75;;;5.30;;
33714;SDS011;20043;50.998;4.754;2023-02-01T04:36:11;32.63;;;5.60;;
33714;SDS011;20043;50.998;4.754;2023-02-01T04:38:36;38.55;;;6.72;;
33714;SDS011;20043;50.998;4.754;2023-02-01T04:41:02;28.90;;;4.68;;
33714;SDS011;20043;50.998;4.754;2023-02-01T04:43:27;41.42;;;5.68;;
33714;SDS011;20043;50.998;4.754;2023-02-01T04:45:53;31.33;;;5.32;;
33714;SDS011;20043;50.998;4.754;2023-02-01T04:48:19;31.20;;;5.40;;
33714;SDS011;20043;50.998;4.754;2023-02-01T04:50:45;34.50;;;5.50;;
33714;SDS011;20043;50.998;4.754;2023-02-01T04:53:13;41.08;;;5.20;;
33714;SDS011;20043;50.998;4.754;2023-02-01T04:55:42;38.38;;;6.35;;
33714;SDS011;20043;50.998;4.754;2023-02-01T04:58:08;38.22;;;6.03;;
33714;SDS011;20043;50.998;4.754;2023-02-01T05:00:34;31.25;;;5.38;;
33714;SDS011;20043;50.998;4.754;2023-02-01T05:03:00;32.13;;;5.15;;
33714;SDS011;20043;50.998;4.754;2023-02-01T05:05:26;36.22;;;5.10;;
33714;SDS011;20043;50.998;4.754;2023-02-01T05:07:52;32.55;;;5.82;;
33714;SDS011;20043;50.998;4.754;2023-02-01T05:10:17;39.90;;;5.72;;
33714;SDS011;20043;50.998;4.754;2023-02-01T05:12:43;33.17;;;5.68;;
33714;SDS011;20043;50.998;4.754;2023-02-01T05:15:28;37.97;;;5.60;;
33714;SDS011;20043;50.998;4.754;2023-02-01T05:17:54;34.65;;;5.95;;
33714;SDS011;20043;50.998;4.754;2023-02-01T05:20:19;32.08;;;5.40;;
33714;SDS011;20043;50.998;4.754;2023-02-01T05:22:45;34.03;;;5.32;;
33714;SDS011;20043;50.998;4.754;2023-02-01T05:25:11;42.25;;;6.13;;
33714;SDS011;20043;50.998;4.754;2023-02-01T05:27:36;30.20;;;5.53;;
33714;SDS011;20043;50.998;4.754;2023-02-01T05:30:03;27.13;;;5.72;;
33714;SDS011;20043;50.998;4.754;2023-02-01T05:32:32;34.95;;;5.10;;
33714;SDS011;20043;50.998;4.754;2023-02-01T05:34:57;45.55;;;6.47;;
33714;SDS011;20043;50.998;4.754;2023-02-01T05:37:23;33.65;;;5.88;;
33714;SDS011;20043;50.998;4.754;2023-02-01T05:39:48;32.20;;;5.60;;
33714;SDS011;20043;50.998;4.754;2023-02-01T05:42:14;43.00;;;6.70;;
33714;SDS011;20043;50.998;4.754;2023-02-01T05:44:40;38.05;;;5.95;;
33714;SDS011;20043;50.998;4.754;2023-02-01T05:47:05;35.28;;;4.90;;
33714;SDS011;20043;50.998;4.754;2023-02-01T05:49:31;40.05;;;5.65;;
33714;SDS011;20043;50.998;4.754;2023-02-01T05:51:57;35.88;;;4.97;;
33714;SDS011;20043;50.998;4.754;2023-02-01T05:54:22;34.58;;;5.75;;
33714;SDS011;20043;50.998;4.754;2023-02-01T05:56:48;31.20;;;5.45;;
33714;SDS011;20043;50.998;4.754;2023-02-01T05:59:13;28.13;;;5.38;;
33714;SDS011;20043;50.998;4.754;2023-02-01T06:01:39;34.95;;;6.35;;
33714;SDS011;20043;50.998;4.754;2023-02-01T06:04:07;29.67;;;4.95;;
33714;SDS011;20043;50.998;4.754;2023-02-01T06:06:33;34.35;;;5.72;;
33714;SDS011;20043;50.998;4.754;2023-02-01T06:08:59;38.13;;;5.95;;
33714;SDS011;20043;50.998;4.754;2023-02-01T06:11:25;38.08;;;5.38;;
33714;SDS011;20043;50.998;4.754;2023-02-01T06:13:51;36.78;;;6.60;;
33714;SDS011;20043;50.998;4.754;2023-02-01T06:16:17;41.75;;;5.28;;
33714;SDS011;20043;50.998;4.754;2023-02-01T06:18:42;39.55;;;6.53;;
33714;SDS011;20043;50.998;4.754;2023-02-01T06:21:08;36.85;;;5.60;;
33714;SDS011;20043;50.998;4.754;2023-02-01T06:23:34;35.17;;;5.03;;
33714;SDS011;20043;50.998;4.754;2023-02-01T06:26:01;35.35;;;5.35;;
33714;SDS011;20043;50.998;4.754;2023-02-01T06:28:28;42.72;;;6.60;;
33714;SDS011;20043;50.998;4.754;2023-02-01T06:30:55;30.63;;;5.40;;
33714;SDS011;20043;50.998;4.754;2023-02-01T06:33:20;35.15;;;6.53;;
33714;SDS011;20043;50.998;4.754;2023-02-01T06:35:46;32.92;;;4.85;;
33714;SDS011;20043;50.998;4.754;2023-02-01T06:38:12;36.47;;;6.93;;
33714;SDS011;20043;50.998;4.754;2023-02-01T06:40:38;38.50;;;6.57;;
33714;SDS011;20043;50.998;4.754;2023-02-01T06:43:07;33.40;;;5.65;;
33714;SDS011;20043;50.998;4.754;2023-02-01T06:45:32;30.17;;;5.47;;
33714;SDS011;20043;50.998;4.754;2023-02-01T06:47:58;35.53;;;5.90;;
33714;SDS011;20043;50.998;4.754;2023-02-01T06:50:25;29.77;;;5.80;;
33714;SDS011;20043;50.998;4.754;2023-02-01T06:52:53;31.92;;;6.45;;
33714;SDS011;20043;50.998;4.754;2023-02-01T06:55:20;34.33;;;5.38;;
33714;SDS011;20043;50.998;4.754;2023-02-01T06:57:45;40.47;;;6.15;;
33714;SDS011;20043;50.998;4.754;2023-02-01T07:00:11;41.53;;;6.75;;
33714;SDS011;20043;50.998;4.754;2023-02-01T07:02:37;39.05;;;5.82;;
33714;SDS011;20043;50.998;4.754;2023-02-01T07:05:03;32.47;;;5.72;;
33714;SDS011;20043;50.998;4.754;2023-02-01T07:07:29;32.75;;;5.18;;
33714;SDS011;20043;50.998;4.754;2023-02-01T07:09:55;34.35;;;6.28;;
33714;SDS011;20043;50.998;4.754;2023-02-01T07:12:20;36.92;;;5.35;;
33714;SDS011;20043;50.998;4.754;2023-02-01T07:14:46;33.75;;;5.18;;
33714;SDS011;20043;50.998;4.754;2023-02-01T07:17:11;30.83;;;5.60;;
33714;SDS011;20043;50.998;4.754;2023-02-01T07:19:37;37.33;;;5.57;;
33714;SDS011;20043;50.998;4.754;2023-02-01T07:22:02;31.83;;;5.40;;
33714;SDS011;20043;50.998;4.754;2023-02-01T07:24:28;39.47;;;5.90;;
33714;SDS011;20043;50.998;4.754;2023-02-01T07:26:55;27.98;;;5.20;;
33714;SDS011;20043;50.998;4.754;2023-02-01T07:29:21;37.90;;;5.90;;
33714;SDS011;20043;50.998;4.754;2023-02-01T07:31:46;31.10;;;4.57;;
33714;SDS011;20043;50.998;4.754;2023-02-01T07:34:12;27.95;;;4.53;;
33714;SDS011;20043;50.998;4.754;2023-02-01T07:36:37;33.60;;;5.13;;
33714;SDS011;20043;50.998;4.754;2023-02-01T07:39:03;30.30;;;5.60;;
33714;SDS011;20043;50.998;4.754;2023-02-01T07:41:29;32.75;;;5.43;;
33714;SDS011;20043;50.998;4.754;2023-02-01T07:43:55;27.58;;;5.18;;
33714;SDS011;20043;50.998;4.754;2023-02-01T07:46:20;32.85;;;5.90;;
33714;SDS011;20043;50.998;4.754;2023-02-01T07:48:46;35.83;;;5.18;;
33714;SDS011;20043;50.998;4.754;2023-02-01T07:51:13;36.45;;;5.13;;
33714;SDS011;20043;50.998;4.754;2023-02-01T07:53:40;33.63;;;6.05;;
33714;SDS011;20043;50.998;4.754;2023-02-01T07:56:16;25.80;;;5.20;;
33714;SDS011;20043;50.998;4.754;2023-02-01T07:58:47;30.08;;;5.13;;
33714;SDS011;20043;50.998;4.754;2023-02-01T08:01:17;27.27;;;4.35;;
33714;SDS011;20043;50.998;4.754;2023-02-01T08:03:56;36.38;;;5.57;;
33714;SDS011;20043;50.998;4.754;2023-02-01T08:06:25;32.92;;;5.45;;
33714;SDS011;20043;50.998;4.754;2023-02-01T08:08:51;42.67;;;6.68;;
33714;SDS011;20043;50.998;4.754;2023-02-01T08:11:18;32.15;;;5.40;;
33714;SDS011;20043;50.998;4.754;2023-02-01T08:13:45;34.95;;;5.30;;
33714;SDS011;20043;50.998;4.754;2023-02-01T08:16:12;35.22;;;5.90;;
33714;SDS011;20043;50.998;4.754;2023-02-01T08:18:38;31.65;;;5.15;;
33714;SDS011;20043;50.998;4.754;2023-02-01T08:21:05;23.63;;;4.70;;
33714;SDS011;20043;50.998;4.754;2023-02-01T08:23:36;27.98;;;5.00;;
33714;SDS011;20043;50.998;4.754;2023-02-01T08:26:07;32.38;;;5.85;;
33714;SDS011;20043;50.998;4.754;2023-02-01T08:28:57;33.53;;;5.78;;
33714;SDS011;20043;50.998;4.754;2023-02-01T08:31:25;40.75;;;5.65;;
33714;SDS011;20043;50.998;4.754;2023-02-01T08:33:56;29.00;;;5.10;;
33714;SDS011;20043;50.998;4.754;2023-02-01T08:36:24;28.70;;;4.88;;
33714;SDS011;20043;50.998;4.754;2023-02-01T08:38:51;40.08;;;6.38;;
33714;SDS011;20043;50.998;4.754;2023-02-01T08:41:20;40.15;;;5.43;;
33714;SDS011;20043;50.998;4.754;2023-02-01T08:43:49;27.83;;;6.00;;
33714;SDS011;20043;50.998;4.754;2023-02-01T08:46:16;32.17;;;5.68;;
33714;SDS011;20043;50.998;4.754;2023-02-01T08:48:42;32.47;;;5.20;;
33714;SDS011;20043;50.998;4.754;2023-02-01T08:51:11;32.90;;;5.82;;
33714;SDS011;20043;50.998;4.754;2023-02-01T08:53:38;27.42;;;5.47;;
33714;SDS011;20043;50.998;4.754;2023-02-01T08:56:06;32.92;;;5.68;;
33714;SDS011;20043;50.998;4.754;2023-02-01T08:58:32;32.72;;;6.10;;
33714;SDS011;20043;50.998;4.754;2023-02-01T09:01:02;34.15;;;5.47;;
33714;SDS011;20043;50.998;4.754;2023-02-01T09:03:32;38.13;;;5.93;;
33714;SDS011;20043;50.998;4.754;2023-02-01T09:06:02;31.83;;;5.93;;
33714;SDS011;20043;50.998;4.754;2023-02-01T09:08:32;35.63;;;5.95;;
33714;SDS011;20043;50.998;4.754;2023-02-01T09:11:02;30.02;;;5.82;;
33714;SDS011;20043;50.998;4.754;2023-02-01T09:13:30;39.78;;;5.90;;
33714;SDS011;20043;50.998;4.754;2023-02-01T09:15:56;32.17;;;5.65;;
33714;SDS011;20043;50.998;4.754;2023-02-01T09:18:22;29.35;;;6.07;;
33714;SDS011;20043;50.998;4.754;2023-02-01T09:20:47;31.83;;;5.93;;
33714;SDS011;20043;50.998;4.754;2023-02-01T09:23:13;30.88;;;5.72;;
33714;SDS011;20043;50.998;4.754;2023-02-01T09:25:38;29.85;;;5.60;;
33714;SDS011;20043;50.998;4.754;2023-02-01T09:28:05;30.83;;;5.80;;
33714;SDS011;20043;50.998;4.754;2023-02-01T09:30:34;27.98;;;5.20;;
33714;SDS011;20043;50.998;4.754;2023-02-01T09:33:00;32.42;;;6.05;;
33714;SDS011;20043;50.998;4.754;2023-02-01T09:35:25;31.40;;;5.65;;
33714;SDS011;20043;50.998;4.754;2023-02-01T09:37:54;28.40;;;5.53;;
33714;SDS011;20043;50.998;4.754;2023-02-01T09:40:20;32.72;;;5.47;;
33714;SDS011;20043;50.998;4.754;2023-02-01T09:45:17;35.13;;;6.13;;
33714;SDS011;20043;50.998;4.754;2023-02-01T09:47:49;32.28;;;5.03;;
33714;SDS011;20043;50.998;4.754;2023-02-01T09:50:20;30.45;;;5.55;;
33714;SDS011;20043;50.998;4.754;2023-02-01T09:53:30;86.95;;;12.68;;
33714;SDS011;20043;50.998;4.754;2023-02-01T09:55:55;36.58;;;5.40;;
33714;SDS011;20043;50.998;4.754;2023-02-01T10:01:52;26.70;;;4.35;;
33714;SDS011;20043;50.998;4.754;2023-02-01T10:04:18;35.28;;;5.55;;
33714;SDS011;20043;50.998;4.754;2023-02-01T10:09:42;34.70;;;6.00;;
33714;SDS011;20043;50.998;4.754;2023-02-01T10:20:18;32.08;;;4.80;;
33714;SDS011;20043;50.998;4.754;2023-02-01T10:27:56;24.45;;;4.32;;
33714;SDS011;20043;50.998;4.754;2023-02-01T10:30:25;27.05;;;4.82;;
33714;SDS011;20043;50.998;4.754;2023-02-01T10:33:07;27.05;;;5.00;;
33714;SDS011;20043;50.998;4.754;2023-02-01T10:35:38;29.67;;;5.20;;
33714;SDS011;20043;50.998;4.754;2023-02-01T10:38:07;33.40;;;5.80;;
33714;SDS011;20043;50.998;4.754;2023-02-01T10:40:52;24.52;;;4.88;;
33714;SDS011;20043;50.998;4.754;2023-02-01T10:43:20;34.33;;;5.18;;
33714;SDS011;20043;50.998;4.754;2023-02-01T10:45:46;27.75;;;5.60;;
33714;SDS011;20043;50.998;4.754;2023-02-01T10:48:12;24.08;;;5.22;;
33714;SDS011;20043;50.998;4.754;2023-02-01T10:50:49;33.22;;;5.35;;
33714;SDS011;20043;50.998;4.754;2023-02-01T10:53:18;26.95;;;5.25;;
33714;SDS011;20043;50.998;4.754;2023-02-01T10:55:52;31.30;;;4.90;;
33714;SDS011;20043;50.998;4.754;2023-02-01T10:58:26;25.27;;;4.53;;
33714;SDS011;20043;50.998;4.754;2023-02-01T11:00:58;32.08;;;5.30;;
33714;SDS011;20043;50.998;4.754;2023-02-01T11:03:33;29.10;;;5.18;;
33714;SDS011;20043;50.998;4.754;2023-02-01T11:08:58;34.40;;;5.15;;
33714;SDS011;20043;50.998;4.754;2023-02-01T11:14:16;27.98;;;4.18;;
33714;SDS011;20043;50.998;4.754;2023-02-01T11:16:47;22.83;;;4.05;;
33714;SDS011;20043;50.998;4.754;2023-02-01T11:19:17;29.08;;;4.43;;
33714;SDS011;20043;50.998;4.754;2023-02-01T11:21:43;28.45;;;4.68;;
33714;SDS011;20043;50.998;4.754;2023-02-01T11:24:32;23.30;;;4.47;;
33714;SDS011;20043;50.998;4.754;2023-02-01T11:27:02;27.10;;;4.28;;
33714;SDS011;20043;50.998;4.754;2023-02-01T11:29:32;30.70;;;5.32;;
33714;SDS011;20043;50.998;4.754;2023-02-01T11:32:03;24.67;;;3.80;;
33714;SDS011;20043;50.998;4.754;2023-02-01T11:34:33;30.45;;;3.78;;
33714;SDS011;20043;50.998;4.754;2023-02-01T11:39:54;27.25;;;3.95;;
33714;SDS011;20043;50.998;4.754;2023-02-01T11:42:28;19.23;;;3.78;;
33714;SDS011;20043;50.998;4.754;2023-02-01T11:47:58;25.00;;;4.65;;
33714;SDS011;20043;50.998;4.754;2023-02-01T11:50:40;25.33;;;4.18;;
33714;SDS011;20043;50.998;4.754;2023-02-01T12:07:14;26.02;;;3.97;;
33714;SDS011;20043;50.998;4.754;2023-02-01T12:13:08;19.77;;;4.40;;
33714;SDS011;20043;50.998;4.754;2023-02-01T12:18:26;18.45;;;4.00;;
33714;SDS011;20043;50.998;4.754;2023-02-01T12:21:17;24.20;;;4.13;;
33714;SDS011;20043;50.998;4.754;2023-02-01T12:43:01;14.85;;;3.17;;
33714;SDS011;20043;50.998;4.754;2023-02-01T12:46:01;21.10;;;3.90;;
33714;SDS011;20043;50.998;4.754;2023-02-01T12:48:37;21.33;;;3.25;;
33714;SDS011;20043;50.998;4.754;2023-02-01T12:51:24;18.65;;;3.72;;
33714;SDS011;20043;50.998;4.754;2023-02-01T12:54:04;20.10;;;3.72;;
33714;SDS011;20043;50.998;4.754;2023-02-01T12:56:43;18.30;;;3.70;;
33714;SDS011;20043;50.998;4.754;2023-02-01T12:59:18;17.60;;;3.40;;
33714;SDS011;20043;50.998;4.754;2023-02-01T13:02:14;20.75;;;3.33;;
33714;SDS011;20043;50.998;4.754;2023-02-01T13:07:45;22.50;;;3.50;;
33714;SDS011;20043;50.998;4.754;2023-02-01T13:10:34;24.38;;;3.95;;
33714;SDS011;20043;50.998;4.754;2023-02-01T13:16:03;16.08;;;2.95;;
33714;SDS011;20043;50.998;4.754;2023-02-01T13:18:38;18.95;;;3.13;;
33714;SDS011;20043;50.998;4.754;2023-02-01T13:21:10;21.13;;;3.72;;
33714;SDS011;20043;50.998;4.754;2023-02-01T13:23:46;17.08;;;3.03;;
33714;SDS011;20043;50.998;4.754;2023-02-01T13:26:13;17.90;;;3.78;;
33714;SDS011;20043;50.998;4.754;2023-02-01T13:28:44;22.63;;;3.40;;
33714;SDS011;20043;50.998;4.754;2023-02-01T13:31:35;18.40;;;3.50;;
33714;SDS011;20043;50.998;4.754;2023-02-01T13:42:25;17.10;;;2.92;;
33714;SDS011;20043;50.998;4.754;2023-02-01T13:47:34;18.90;;;3.38;;
33714;SDS011;20043;50.998;4.754;2023-02-01T13:50:20;17.38;;;3.45;;
33714;SDS011;20043;50.998;4.754;2023-02-01T13:55:37;20.10;;;3.58;;
33714;SDS011;20043;50.998;4.754;2023-02-01T13:58:21;20.23;;;3.60;;
33714;SDS011;20043;50.998;4.754;2023-02-01T14:01:31;24.13;;;3.22;;
33714;SDS011;20043;50.998;4.754;2023-02-01T14:03:47;21.30;;;3.20;;
33714;SDS011;20043;50.998;4.754;2023-02-01T14:06:32;25.75;;;4.05;;
33714;SDS011;20043;50.998;4.754;2023-02-01T14:09:11;24.75;;;3.55;;
33714;SDS011;20043;50.998;4.754;2023-02-01T14:16:43;20.35;;;3.90;;
33714;SDS011;20043;50.998;4.754;2023-02-01T14:19:29;21.02;;;3.33;;
33714;SDS011;20043;50.998;4.754;2023-02-01T14:21:58;20.75;;;3.70;;
33714;SDS011;20043;50.998;4.754;2023-02-01T14:26:56;14.32;;;2.90;;
33714;SDS011;20043;50.998;4.754;2023-02-01T14:29:26;21.23;;;3.70;;
33714;SDS011;20043;50.998;4.754;2023-02-01T14:32:04;20.85;;;3.47;;
33714;SDS011;20043;50.998;4.754;2023-02-01T14:35:07;21.02;;;3.13;;
33714;SDS011;20043;50.998;4.754;2023-02-01T14:37:42;19.15;;;3.25;;
33714;SDS011;20043;50.998;4.754;2023-02-01T14:42:44;20.38;;;3.42;;
33714;SDS011;20043;50.998;4.754;2023-02-01T14:50:39;19.90;;;3.78;;
33714;SDS011;20043;50.998;4.754;2023-02-01T15:06:32;23.35;;;4.40;;
33714;SDS011;20043;50.998;4.754;2023-02-01T15:14:30;19.00;;;4.10;;
33714;SDS011;20043;50.998;4.754;2023-02-01T15:17:00;24.10;;;3.65;;
33714;SDS011;20043;50.998;4.754;2023-02-01T15:19:27;17.80;;;3.72;;
33714;SDS011;20043;50.998;4.754;2023-02-01T15:21:55;26.65;;;4.57;;
33714;SDS011;20043;50.998;4.754;2023-02-01T15:24:29;20.48;;;4.10;;
33714;SDS011;20043;50.998;4.754;2023-02-01T15:26:56;15.82;;;3.88;;
33714;SDS011;20043;50.998;4.754;2023-02-01T15:29:28;27.92;;;4.00;;
33714;SDS011;20043;50.998;4.754;2023-02-01T15:31:58;31.48;;;4.18;;
33714;SDS011;20043;50.998;4.754;2023-02-01T15:34:33;21.50;;;3.40;;
33714;SDS011;20043;50.998;4.754;2023-02-01T15:37:15;18.55;;;3.60;;
33714;SDS011;20043;50.998;4.754;2023-02-01T15:42:35;22.30;;;3.70;;
33714;SDS011;20043;50.998;4.754;2023-02-01T15:45:22;19.48;;;3.92;;
33714;SDS011;20043;50.998;4.754;2023-02-01T15:47:52;23.88;;;4.10;;
33714;SDS011;20043;50.998;4.754;2023-02-01T15:50:20;26.38;;;5.07;;
33714;SDS011;20043;50.998;4.754;2023-02-01T15:52:49;22.48;;;4.38;;
33714;SDS011;20043;50.998;4.754;2023-02-01T15:55:18;14.88;;;3.40;;
33714;SDS011;20043;50.998;4.754;2023-02-01T15:57:44;21.60;;;4.25;;
33714;SDS011;20043;50.998;4.754;2023-02-01T16:02:52;21.13;;;4.32;;
33714;SDS011;20043;50.998;4.754;2023-02-01T16:05:46;29.15;;;4.50;;
33714;SDS011;20043;50.998;4.754;2023-02-01T16:10:42;31.58;;;5.28;;
33714;SDS011;20043;50.998;4.754;2023-02-01T16:13:10;25.17;;;4.20;;
33714;SDS011;20043;50.998;4.754;2023-02-01T16:15:37;19.90;;;4.55;;
33714;SDS011;20043;50.998;4.754;2023-02-01T16:18:03;34.25;;;5.28;;
33714;SDS011;20043;50.998;4.754;2023-02-01T16:20:32;24.85;;;4.35;;
33714;SDS011;20043;50.998;4.754;2023-02-01T16:23:00;19.98;;;4.18;;
33714;SDS011;20043;50.998;4.754;2023-02-01T16:25:26;27.02;;;4.78;;
33714;SDS011;20043;50.998;4.754;2023-02-01T16:27:52;27.88;;;4.00;;
33714;SDS011;20043;50.998;4.754;2023-02-01T16:30:20;25.83;;;4.15;;
33714;SDS011;20043;50.998;4.754;2023-02-01T16:32:58;23.65;;;4.10;;
33714;SDS011;20043;50.998;4.754;2023-02-01T16:37:51;29.13;;;5.15;;
33714;SDS011;20043;50.998;4.754;2023-02-01T16:40:18;23.77;;;4.97;;
33714;SDS011;20043;50.998;4.754;2023-02-01T16:42:47;23.70;;;4.25;;
33714;SDS011;20043;50.998;4.754;2023-02-01T16:45:15;19.17;;;3.92;;
33714;SDS011;20043;50.998;4.754;2023-02-01T16:47:42;29.23;;;4.72;;
33714;SDS011;20043;50.998;4.754;2023-02-01T16:50:18;17.27;;;3.90;;
33714;SDS011;20043;50.998;4.754;2023-02-01T16:52:47;26.58;;;4.57;;
33714;SDS011;20043;50.998;4.754;2023-02-01T16:55:16;22.60;;;4.68;;
33714;SDS011;20043;50.998;4.754;2023-02-01T16:57:43;20.17;;;3.90;;
33714;SDS011;20043;50.998;4.754;2023-02-01T17:00:09;20.63;;;3.92;;
33714;SDS011;20043;50.998;4.754;2023-02-01T17:02:36;26.40;;;5.13;;
33714;SDS011;20043;50.998;4.754;2023-02-01T17:05:02;30.73;;;4.45;;
33714;SDS011;20043;50.998;4.754;2023-02-01T17:07:29;23.85;;;3.67;;
33714;SDS011;20043;50.998;4.754;2023-02-01T17:09:55;27.30;;;5.15;;
33714;SDS011;20043;50.998;4.754;2023-02-01T17:12:24;24.70;;;4.57;;
33714;SDS011;20043;50.998;4.754;2023-02-01T17:14:52;23.77;;;4.63;;
33714;SDS011;20043;50.998;4.754;2023-02-01T17:17:21;32.33;;;4.93;;
33714;SDS011;20043;50.998;4.754;2023-02-01T17:19:50;33.88;;;4.80;;
33714;SDS011;20043;50.998;4.754;2023-02-01T17:22:18;25.80;;;4.55;;
33714;SDS011;20043;50.998;4.754;2023-02-01T17:24:45;25.08;;;4.95;;
33714;SDS011;20043;50.998;4.754;2023-02-01T17:27:11;37.40;;;6.00;;
33714;SDS011;20043;50.998;4.754;2023-02-01T17:29:36;23.48;;;4.70;;
33714;SDS011;20043;50.998;4.754;2023-02-01T17:32:02;25.88;;;5.47;;
33714;SDS011;20043;50.998;4.754;2023-02-01T17:34:29;31.67;;;4.82;;
33714;SDS011;20043;50.998;4.754;2023-02-01T17:36:55;23.27;;;4.97;;
33714;SDS011;20043;50.998;4.754;2023-02-01T17:39:20;26.70;;;4.80;;